createdAt,value
2019-01-20T00:01:47.989Z,-0.10
2019-01-20T00:04:14.430Z,-0.10
2019-01-20T00:06:41.374Z,-0.10
2019-01-20T00:09:09.649Z,-0.10
2019-01-20T00:11:36.614Z,-0.10
2019-01-20T00:14:03.613Z,-0.10
2019-01-20T00:16:30.209Z,-0.10
2019-01-20T00:18:56.760Z,-0.10
2019-01-20T00:21:23.105Z,-0.10
2019-01-20T00:23:49.420Z,-0.10
2019-01-20T00:26:15.957Z,-0.10
2019-01-20T00:28:42.463Z,-0.20
2019-01-20T00:31:09.238Z,-0.20
2019-01-20T00:33:36.252Z,-0.20
2019-01-20T00:36:02.960Z,-0.20
2019-01-20T00:38:29.472Z,-0.20
2019-01-20T00:40:56.150Z,-0.30
2019-01-20T00:43:22.729Z,-0.30
2019-01-20T00:45:49.544Z,-0.30
2019-01-20T00:48:15.911Z,-0.30
2019-01-20T00:50:42.437Z,-0.30
2019-01-20T00:53:09.140Z,-0.30
2019-01-20T00:55:36.106Z,-0.30
2019-01-20T00:58:03.399Z,-0.40
2019-01-20T01:00:31.510Z,-0.40
2019-01-20T01:02:58.130Z,-0.30
2019-01-20T01:05:24.798Z,-0.30
2019-01-20T01:07:53.411Z,-0.30
2019-01-20T01:10:20.551Z,-0.30
2019-01-20T01:12:48.110Z,-0.20
2019-01-20T01:15:20.819Z,-0.30
2019-01-20T01:17:48.091Z,-0.30
2019-01-20T01:20:18.855Z,-0.20
2019-01-20T01:22:45.929Z,-0.30
2019-01-20T01:25:14.079Z,-0.30
2019-01-20T01:27:47.186Z,-0.30
2019-01-20T01:30:19.874Z,-0.30
2019-01-20T01:32:47.199Z,-0.30
2019-01-20T01:35:13.852Z,-0.30
2019-01-20T01:37:40.496Z,-0.30
2019-01-20T01:40:09.851Z,-0.40
2019-01-20T01:42:36.315Z,-0.50
2019-01-20T01:45:06.310Z,-0.40
2019-01-20T01:47:32.800Z,-0.50
2019-01-20T01:49:59.721Z,-0.40
2019-01-20T01:52:26.087Z,-0.40
2019-01-20T01:54:52.559Z,-0.40
2019-01-20T01:57:19.184Z,-0.40
2019-01-20T01:59:45.584Z,-0.40
2019-01-20T02:02:12.187Z,-0.50
2019-01-20T02:04:38.893Z,-0.50
2019-01-20T02:07:05.500Z,-0.70
2019-01-20T02:09:32.180Z,-0.60
2019-01-20T02:11:58.797Z,-0.60
2019-01-20T02:14:25.236Z,-0.50
2019-01-20T02:16:51.776Z,-0.50
2019-01-20T02:19:18.309Z,-0.40
2019-01-20T02:21:45.048Z,-0.50
2019-01-20T02:24:11.486Z,-0.50
2019-01-20T02:26:38.149Z,-0.60
2019-01-20T02:29:05.898Z,-0.90
2019-01-20T02:31:33.005Z,-0.90
2019-01-20T02:33:59.527Z,-0.70
2019-01-20T02:36:26.102Z,-0.60
2019-01-20T02:38:52.528Z,-0.50
2019-01-20T02:41:18.962Z,-0.70
2019-01-20T02:43:45.432Z,-0.60
2019-01-20T02:46:12.365Z,-0.60
2019-01-20T02:48:39.085Z,-0.50
2019-01-20T02:51:08.850Z,-0.50
2019-01-20T02:53:39.120Z,-0.70
2019-01-20T02:56:05.697Z,-0.50
2019-01-20T02:58:32.135Z,-0.50
2019-01-20T03:00:58.566Z,-0.80
2019-01-20T03:03:24.908Z,-0.60
2019-01-20T03:05:51.621Z,-0.50
2019-01-20T03:08:18.477Z,-0.60
2019-01-20T03:10:45.189Z,-0.60
2019-01-20T03:13:11.735Z,-0.60
2019-01-20T03:15:38.972Z,-0.70
2019-01-20T03:18:05.647Z,-0.70
2019-01-20T03:20:32.302Z,-0.80
2019-01-20T03:22:58.802Z,-0.70
2019-01-20T03:25:25.329Z,-0.70
2019-01-20T03:27:52.318Z,-0.70
2019-01-20T03:30:20.690Z,-0.70
2019-01-20T03:32:47.203Z,-0.70
2019-01-20T03:35:15.421Z,-0.70
2019-01-20T03:37:42.045Z,-0.70
2019-01-20T03:40:11.961Z,-0.70
2019-01-20T03:42:38.391Z,-0.70
2019-01-20T03:45:09.242Z,-0.70
2019-01-20T03:47:35.699Z,-0.60
2019-01-20T03:50:03.369Z,-0.70
2019-01-20T03:52:29.832Z,-0.70
2019-01-20T03:54:56.346Z,-0.80
2019-01-20T03:57:23.038Z,-0.80
2019-01-20T03:59:50.197Z,-0.80
2019-01-20T04:02:18.734Z,-0.80
2019-01-20T04:04:45.368Z,-0.80
2019-01-20T04:07:11.969Z,-0.80
2019-01-20T04:09:38.997Z,-0.80
2019-01-20T04:12:05.663Z,-0.80
2019-01-20T04:14:32.315Z,-0.90
2019-01-20T04:16:58.862Z,-0.80
2019-01-20T04:19:25.426Z,-0.80
2019-01-20T04:21:51.908Z,-0.80
2019-01-20T04:24:18.480Z,-0.80
2019-01-20T04:26:45.080Z,-0.90
2019-01-20T04:29:11.757Z,-0.90
2019-01-20T04:31:38.301Z,-0.80
2019-01-20T04:34:05.372Z,-0.90
2019-01-20T04:36:31.940Z,-0.90
2019-01-20T04:38:58.389Z,-0.90
2019-01-20T04:41:25.155Z,-0.90
2019-01-20T04:43:51.962Z,-0.90
2019-01-20T04:46:18.632Z,-0.90
2019-01-20T04:48:45.173Z,-0.80
2019-01-20T04:51:11.670Z,-0.90
2019-01-20T04:53:38.668Z,-0.90
2019-01-20T04:56:05.277Z,-0.90
2019-01-20T04:58:31.727Z,-0.90
2019-01-20T05:00:59.292Z,-0.90
2019-01-20T05:03:25.686Z,-0.90
2019-01-20T05:05:52.149Z,-0.90
2019-01-20T05:08:18.562Z,-0.90
2019-01-20T05:10:45.481Z,-0.90
2019-01-20T05:13:14.943Z,-0.90
2019-01-20T05:15:41.399Z,-1.00
2019-01-20T05:18:10.718Z,-1.00
2019-01-20T05:20:37.431Z,-1.00
2019-01-20T05:23:04.033Z,-1.00
2019-01-20T05:25:33.220Z,-1.00
2019-01-20T05:28:03.207Z,-1.00
2019-01-20T05:30:29.638Z,-1.00
2019-01-20T05:32:56.136Z,-1.00
2019-01-20T05:35:22.631Z,-1.10
2019-01-20T05:37:49.148Z,-1.30
2019-01-20T05:40:20.784Z,-1.20
2019-01-20T05:42:50.143Z,-1.20
2019-01-20T05:45:19.966Z,-1.20
2019-01-20T05:47:46.594Z,-1.20
2019-01-20T05:50:14.335Z,-1.30
2019-01-20T05:52:41.031Z,-1.20
2019-01-20T05:55:10.244Z,-1.20
2019-01-20T05:57:39.680Z,-1.20
2019-01-20T06:00:15.975Z,-1.30
2019-01-20T06:02:42.840Z,-1.30
2019-01-20T06:05:09.361Z,-1.30
2019-01-20T06:07:36.086Z,-1.30
2019-01-20T06:10:05.723Z,-1.30
2019-01-20T06:12:32.279Z,-1.30
2019-01-20T06:14:58.843Z,-1.30
2019-01-20T06:17:25.457Z,-1.30
2019-01-20T06:19:52.234Z,-1.30
2019-01-20T06:22:18.859Z,-1.30
2019-01-20T06:24:45.441Z,-1.30
2019-01-20T06:27:12.066Z,-1.30
2019-01-20T06:29:38.794Z,-1.40
2019-01-20T06:32:05.434Z,-1.40
2019-01-20T06:34:32.851Z,-1.30
2019-01-20T06:36:59.337Z,-1.50
2019-01-20T06:39:25.838Z,-1.50
2019-01-20T06:41:52.440Z,-1.50
2019-01-20T06:44:18.919Z,-1.40
2019-01-20T06:46:45.368Z,-1.50
2019-01-20T06:49:11.930Z,-1.50
2019-01-20T06:51:38.598Z,-1.60
2019-01-20T06:54:05.780Z,-1.50
2019-01-20T06:56:32.487Z,-1.50
2019-01-20T06:58:58.874Z,-1.40
2019-01-20T07:01:25.593Z,-1.50
2019-01-20T07:03:52.048Z,-1.60
2019-01-20T07:06:18.964Z,-1.60
2019-01-20T07:08:45.600Z,-1.60
2019-01-20T07:11:12.619Z,-1.70
2019-01-20T07:13:39.623Z,-1.60
2019-01-20T07:16:06.205Z,-1.60
2019-01-20T07:18:33.096Z,-1.60
2019-01-20T07:20:59.928Z,-1.70
2019-01-20T07:23:26.586Z,-1.60
2019-01-20T07:25:53.356Z,-1.70
2019-01-20T07:28:19.891Z,-1.60
2019-01-20T07:30:46.424Z,-1.70
2019-01-20T07:33:13.186Z,-1.70
2019-01-20T07:35:39.918Z,-1.70
2019-01-20T07:38:06.474Z,-1.70
2019-01-20T07:40:35.041Z,-1.60
2019-01-20T07:43:01.949Z,-1.60
2019-01-20T07:45:28.413Z,-1.50
2019-01-20T07:47:55.420Z,-1.50
2019-01-20T07:50:24.033Z,-1.50
2019-01-20T07:52:50.548Z,-1.50
2019-01-20T07:55:17.499Z,-1.50
2019-01-20T07:57:44.496Z,-1.50
2019-01-20T08:00:16.236Z,-1.40
2019-01-20T08:02:42.785Z,-1.40
2019-01-20T08:05:09.904Z,-1.40
2019-01-20T08:07:36.387Z,-1.40
2019-01-20T08:10:35.638Z,-1.30
2019-01-20T08:13:03.471Z,-1.30
2019-01-20T08:15:30.214Z,-1.30
2019-01-20T08:17:56.660Z,-1.40
2019-01-20T08:20:24.016Z,-1.30
2019-01-20T08:22:52.419Z,-1.30
2019-01-20T08:25:19.661Z,-1.40
2019-01-20T08:27:46.231Z,-1.40
2019-01-20T08:30:17.659Z,-1.30
2019-01-20T08:32:47.564Z,-1.30
2019-01-20T08:35:14.310Z,-1.40
2019-01-20T08:37:40.756Z,-1.40
2019-01-20T08:40:10.734Z,-1.40
2019-01-20T08:42:37.908Z,-1.40
2019-01-20T08:45:09.007Z,-1.40
2019-01-20T08:47:37.954Z,-1.40
2019-01-20T08:50:07.955Z,-1.30
2019-01-20T08:52:34.414Z,-1.30
2019-01-20T08:55:02.679Z,-1.20
2019-01-20T08:57:29.381Z,-1.10
2019-01-20T08:59:56.152Z,-1.10
2019-01-20T09:02:23.243Z,-1.10
2019-01-20T09:04:49.693Z,-1.30
2019-01-20T09:07:16.264Z,-1.20
2019-01-20T09:09:43.136Z,-1.10
2019-01-20T09:12:10.284Z,-1.20
2019-01-20T09:14:36.995Z,-1.10
2019-01-20T09:17:03.573Z,-1.10
2019-01-20T09:19:30.236Z,-1.10
2019-01-20T09:21:57.125Z,-1.10
2019-01-20T09:24:23.421Z,-1.00
2019-01-20T09:26:50.392Z,-0.90
2019-01-20T09:29:17.069Z,-0.90
2019-01-20T09:31:43.527Z,-0.90
2019-01-20T09:34:10.097Z,-0.90
2019-01-20T09:36:36.679Z,-0.80
2019-01-20T09:39:08.807Z,-0.80
2019-01-20T09:41:35.969Z,-0.80
2019-01-20T09:44:02.659Z,-0.80
2019-01-20T09:46:30.152Z,-0.80
2019-01-20T09:48:56.859Z,-0.70
2019-01-20T09:51:23.385Z,-0.70
2019-01-20T09:53:49.834Z,-0.70
2019-01-20T09:56:16.666Z,-0.80
2019-01-20T09:58:43.806Z,-0.80
2019-01-20T10:01:10.519Z,-0.70
2019-01-20T10:03:37.168Z,-0.60
2019-01-20T10:06:03.814Z,-0.60
2019-01-20T10:08:30.885Z,-0.60
2019-01-20T10:10:57.260Z,-0.60
2019-01-20T10:13:27.166Z,-0.60
2019-01-20T10:15:53.530Z,-0.60
2019-01-20T10:18:20.680Z,-0.60
2019-01-20T10:20:47.201Z,-0.60
2019-01-20T10:23:14.446Z,-0.60
2019-01-20T10:25:41.494Z,-0.60
2019-01-20T10:28:09.067Z,-0.60
2019-01-20T10:30:39.623Z,-0.70
2019-01-20T10:33:06.644Z,-0.70
2019-01-20T10:35:35.247Z,-0.60
2019-01-20T10:38:04.330Z,-0.60
2019-01-20T10:40:32.306Z,-0.50
2019-01-20T10:42:58.835Z,-0.50
2019-01-20T10:45:27.062Z,-0.60
2019-01-20T10:47:53.829Z,-0.50
2019-01-20T10:50:20.392Z,-0.60
2019-01-20T10:52:47.356Z,-0.50
2019-01-20T10:55:13.815Z,-0.60
2019-01-20T10:57:40.673Z,-0.60
2019-01-20T11:00:19.652Z,-0.50
2019-01-20T11:02:46.224Z,-0.40
2019-01-20T11:05:13.201Z,-0.50
2019-01-20T11:07:39.872Z,-0.60
2019-01-20T11:10:09.699Z,-0.50
2019-01-20T11:12:45.369Z,-0.50
2019-01-20T11:15:14.436Z,-0.50
2019-01-20T11:17:41.138Z,-0.50
2019-01-20T11:20:10.840Z,-0.60
2019-01-20T11:22:38.813Z,-0.60
2019-01-20T11:25:09.168Z,-0.60
2019-01-20T11:27:35.678Z,-0.70
2019-01-20T11:30:04.260Z,-0.70
2019-01-20T11:32:30.847Z,-0.60
2019-01-20T11:34:57.356Z,-0.60
2019-01-20T11:37:23.962Z,-0.60
2019-01-20T11:39:52.015Z,-0.60
2019-01-20T11:42:18.614Z,-0.50
2019-01-20T11:44:45.360Z,-0.50
2019-01-20T11:47:12.053Z,-0.60
2019-01-20T11:49:38.905Z,-0.70
2019-01-20T11:52:05.555Z,-0.60
2019-01-20T11:54:32.189Z,-0.60
2019-01-20T11:56:58.958Z,-0.60
2019-01-20T11:59:25.226Z,-0.60
2019-01-20T12:01:51.850Z,-0.60
2019-01-20T12:04:18.807Z,-0.50
2019-01-20T12:06:45.267Z,-0.60
2019-01-20T12:09:12.521Z,-0.60
2019-01-20T12:11:38.988Z,-0.70
2019-01-20T12:14:05.488Z,-0.60
2019-01-20T12:16:31.986Z,-0.60
2019-01-20T12:18:58.473Z,-0.60
2019-01-20T12:21:24.868Z,-0.80
2019-01-20T12:23:54.463Z,-0.70
2019-01-20T12:26:21.361Z,-0.70
2019-01-20T12:28:47.922Z,-0.70
2019-01-20T12:31:14.406Z,-0.70
2019-01-20T12:33:44.553Z,-0.60
2019-01-20T12:36:11.359Z,-0.60
2019-01-20T12:38:38.175Z,-0.60
2019-01-20T12:41:06.626Z,-0.60
2019-01-20T12:43:33.805Z,-0.60
2019-01-20T12:46:00.985Z,-0.50
2019-01-20T12:48:27.479Z,-0.50
2019-01-20T12:50:54.070Z,-0.60
2019-01-20T12:53:21.022Z,-0.50
2019-01-20T12:55:47.499Z,-0.60
2019-01-20T12:58:14.194Z,-0.50
2019-01-20T13:00:41.295Z,-0.50
2019-01-20T13:03:08.391Z,-0.50
2019-01-20T13:05:34.911Z,-0.70
2019-01-20T13:08:01.802Z,-0.60
2019-01-20T13:10:28.078Z,-0.60
2019-01-20T13:12:54.665Z,-0.60
2019-01-20T13:15:22.600Z,-0.60
2019-01-20T13:17:49.173Z,-0.60
2019-01-20T13:20:20.170Z,-0.60
2019-01-20T13:22:46.689Z,-0.50
2019-01-20T13:25:17.145Z,-0.90
2019-01-20T13:27:43.998Z,-0.80
2019-01-20T13:30:16.444Z,-0.80
2019-01-20T13:32:43.665Z,-0.70
2019-01-20T13:35:10.893Z,-0.70
2019-01-20T13:37:40.993Z,-0.60
2019-01-20T13:40:21.751Z,-0.80
2019-01-20T13:42:48.906Z,-0.80
2019-01-20T13:45:15.671Z,-0.80
2019-01-20T13:47:48.455Z,-0.90
2019-01-20T13:50:14.135Z,-0.80
2019-01-20T13:52:41.222Z,-0.80
2019-01-20T13:55:10.637Z,-0.70
2019-01-20T13:57:43.720Z,-0.70
2019-01-20T14:00:31.303Z,-0.80
2019-01-20T14:03:05.119Z,-0.70
2019-01-20T14:05:34.981Z,-0.80
2019-01-20T14:08:02.169Z,-0.80
2019-01-20T14:10:29.783Z,-0.80
2019-01-20T14:12:56.346Z,-0.80
2019-01-20T14:15:22.655Z,-0.90
2019-01-20T14:17:49.086Z,-1.00
2019-01-20T14:20:21.925Z,-1.00
2019-01-20T14:22:48.581Z,-0.90
2019-01-20T14:25:18.828Z,-0.90
2019-01-20T14:27:48.289Z,-0.90
2019-01-20T14:30:17.919Z,-0.90
2019-01-20T14:32:44.507Z,-1.00
2019-01-20T14:35:11.604Z,-1.00
2019-01-20T14:37:38.347Z,-1.00
2019-01-20T14:40:11.279Z,-1.00
2019-01-20T14:42:37.808Z,-1.00
2019-01-20T14:45:07.579Z,-1.00
2019-01-20T14:47:34.282Z,-1.00
2019-01-20T14:50:00.833Z,-1.00
2019-01-20T14:52:27.554Z,-1.00
2019-01-20T14:54:54.030Z,-1.00
2019-01-20T14:57:20.696Z,-1.00
2019-01-20T14:59:47.411Z,-1.00
2019-01-20T15:02:14.529Z,-1.00
2019-01-20T15:04:42.650Z,-1.10
2019-01-20T15:07:09.064Z,-1.00
2019-01-20T15:09:35.928Z,-1.10
2019-01-20T15:12:02.512Z,-1.00
2019-01-20T15:14:28.952Z,-1.00
2019-01-20T15:16:55.547Z,-1.00
2019-01-20T15:19:25.051Z,-1.00
2019-01-20T15:21:51.577Z,-1.00
2019-01-20T15:24:18.127Z,-1.00
2019-01-20T15:29:38.034Z,-1.00
2019-01-20T15:32:05.091Z,-1.00
2019-01-20T15:34:32.145Z,-1.00
2019-01-20T15:36:58.477Z,-1.00
2019-01-20T15:39:25.180Z,-1.00
2019-01-20T15:41:52.293Z,-1.10
2019-01-20T15:44:19.095Z,-1.10
2019-01-20T15:46:45.535Z,-1.10
2019-01-20T15:49:12.807Z,-1.10
2019-01-20T15:51:43.054Z,-1.10
2019-01-20T15:54:09.591Z,-1.10
2019-01-20T15:56:42.908Z,-1.10
2019-01-20T15:59:09.375Z,-1.20
2019-01-20T16:01:35.806Z,-1.20
2019-01-20T16:04:02.419Z,-1.30
2019-01-20T16:06:28.674Z,-1.30
2019-01-20T16:08:54.964Z,-1.30
2019-01-20T16:11:21.743Z,-1.30
2019-01-20T16:13:48.426Z,-1.30
2019-01-20T16:16:15.315Z,-1.30
2019-01-20T16:18:41.765Z,-1.20
2019-01-20T16:21:08.423Z,-1.20
2019-01-20T16:23:34.967Z,-1.20
2019-01-20T16:26:01.521Z,-1.20
2019-01-20T16:28:27.856Z,-1.30
2019-01-20T16:30:54.628Z,-1.30
2019-01-20T16:33:24.928Z,-1.30
2019-01-20T16:35:51.256Z,-1.30
2019-01-20T16:38:18.197Z,-1.30
2019-01-20T16:40:44.686Z,-1.30
2019-01-20T16:43:11.459Z,-1.30
2019-01-20T16:45:42.042Z,-1.40
2019-01-20T16:48:08.375Z,-1.40
2019-01-20T16:50:35.964Z,-1.50
2019-01-20T16:53:02.682Z,-1.50
2019-01-20T16:55:29.509Z,-1.60
2019-01-20T16:57:55.787Z,-1.60
2019-01-20T17:00:24.520Z,-1.70
2019-01-20T17:02:51.430Z,-1.60
2019-01-20T17:05:21.139Z,-1.60
2019-01-20T17:07:47.971Z,-1.60
2019-01-20T17:10:40.124Z,-1.60
2019-01-20T17:13:08.069Z,-1.60
2019-01-20T17:15:39.891Z,-1.70
2019-01-20T17:18:07.236Z,-1.60
2019-01-20T17:20:35.089Z,-1.60
2019-01-20T17:23:01.960Z,-1.60
2019-01-20T17:25:28.616Z,-1.60
2019-01-20T17:27:58.737Z,-1.70
2019-01-20T17:30:28.847Z,-1.70
2019-01-20T17:32:55.308Z,-1.70
2019-01-20T17:35:21.905Z,-1.60
2019-01-20T17:37:49.657Z,-1.70
2019-01-20T17:40:21.671Z,-1.70
2019-01-20T17:42:48.736Z,-1.70
2019-01-20T17:45:19.240Z,-1.70
2019-01-20T17:47:45.679Z,-1.70
2019-01-20T17:50:18.378Z,-1.80
2019-01-20T17:52:45.114Z,-1.80
2019-01-20T17:55:11.772Z,-1.80
2019-01-20T17:57:38.852Z,-1.90
2019-01-20T18:00:15.686Z,-1.90
2019-01-20T18:02:42.388Z,-1.90
2019-01-20T18:05:12.280Z,-1.90
2019-01-20T18:07:38.982Z,-1.90
2019-01-20T18:10:08.801Z,-1.80
2019-01-20T18:12:35.394Z,-1.80
2019-01-20T18:15:02.530Z,-1.70
2019-01-20T18:17:28.962Z,-1.70
2019-01-20T18:19:55.392Z,-1.80
2019-01-20T18:22:21.939Z,-1.80
2019-01-20T18:24:49.236Z,-1.80
2019-01-20T18:27:15.759Z,-1.90
2019-01-20T18:29:42.429Z,-1.80
2019-01-20T18:32:09.302Z,-1.80
2019-01-20T18:34:35.697Z,-1.80
2019-01-20T18:37:02.539Z,-1.80
2019-01-20T18:39:29.030Z,-1.80
2019-01-20T18:41:55.335Z,-1.80
2019-01-20T18:44:22.039Z,-1.90
2019-01-20T18:46:48.777Z,-1.90
2019-01-20T18:49:15.466Z,-1.90
2019-01-20T18:51:41.942Z,-1.90
2019-01-20T18:54:08.496Z,-1.90
2019-01-20T18:56:35.163Z,-1.90
2019-01-20T18:59:01.625Z,-1.90
2019-01-20T19:01:28.120Z,-1.90
2019-01-20T19:03:56.729Z,-1.90
2019-01-20T19:06:23.209Z,-1.80
2019-01-20T19:08:50.243Z,-1.90
2019-01-20T19:11:17.149Z,-1.90
2019-01-20T19:13:44.011Z,-1.90
2019-01-20T19:16:10.607Z,-1.90
2019-01-20T19:18:37.198Z,-1.90
2019-01-20T19:21:03.930Z,-2.10
2019-01-20T19:23:30.615Z,-2.00
2019-01-20T19:25:58.317Z,-1.90
2019-01-20T19:28:27.029Z,-1.90
2019-01-20T19:30:55.314Z,-2.10
2019-01-20T19:33:21.578Z,-2.10
2019-01-20T19:35:48.058Z,-2.10
2019-01-20T19:38:14.702Z,-2.00
2019-01-20T19:40:41.348Z,-2.00
2019-01-20T19:43:08.448Z,-2.10
2019-01-20T19:45:35.850Z,-1.90
2019-01-20T19:48:02.533Z,-1.90
2019-01-20T19:50:29.207Z,-1.90
2019-01-20T19:52:55.720Z,-2.00
2019-01-20T19:55:26.492Z,-1.90
2019-01-20T19:57:54.892Z,-1.90
2019-01-20T20:00:27.118Z,-1.90
2019-01-20T20:02:53.584Z,-1.90
2019-01-20T20:05:21.144Z,-1.90
2019-01-20T20:07:48.135Z,-1.80
2019-01-20T20:10:20.250Z,-1.80
2019-01-20T20:12:47.075Z,-1.90
2019-01-20T20:15:16.692Z,-1.80
2019-01-20T20:17:43.611Z,-1.80
2019-01-20T20:20:15.341Z,-2.00
2019-01-20T20:22:41.744Z,-1.90
2019-01-20T20:25:13.209Z,-2.00
2019-01-20T20:27:39.599Z,-2.20
2019-01-20T20:30:13.163Z,-2.10
2019-01-20T20:32:42.407Z,-2.10
2019-01-20T20:35:09.288Z,-2.10
2019-01-20T20:37:35.824Z,-2.10
2019-01-20T20:40:05.920Z,-2.00
2019-01-20T20:42:33.790Z,-1.90
2019-01-20T20:45:01.242Z,-1.90
2019-01-20T20:47:27.580Z,-1.90
2019-01-20T20:49:56.981Z,-1.90
2019-01-20T20:52:23.712Z,-2.10
2019-01-20T20:54:50.022Z,-2.00
2019-01-20T20:57:16.445Z,-2.10
2019-01-20T20:59:54.674Z,-2.10
2019-01-20T21:02:20.138Z,-2.10
2019-01-20T21:04:46.405Z,-2.10
2019-01-20T21:07:13.492Z,-2.20
2019-01-20T21:09:39.944Z,-2.10
2019-01-20T21:12:06.429Z,-2.10
2019-01-20T21:14:33.420Z,-2.20
2019-01-20T21:17:00.105Z,-2.20
2019-01-20T21:19:26.921Z,-2.20
2019-01-20T21:21:53.191Z,-2.20
2019-01-20T21:24:19.477Z,-2.20
2019-01-20T21:26:48.502Z,-2.20
2019-01-20T21:29:14.830Z,-2.30
2019-01-20T21:31:41.749Z,-2.30
2019-01-20T21:34:07.979Z,-2.20
2019-01-20T21:36:34.289Z,-2.20
2019-01-20T21:39:01.462Z,-2.20
2019-01-20T21:41:28.079Z,-2.30
2019-01-20T21:43:55.081Z,-2.30
2019-01-20T21:46:21.717Z,-2.20
2019-01-20T21:48:48.460Z,-2.30
2019-01-20T21:51:15.219Z,-2.40
2019-01-20T21:53:41.903Z,-2.30
2019-01-20T21:56:08.731Z,-2.30
2019-01-20T21:58:35.262Z,-2.30
2019-01-20T22:01:01.786Z,-2.40
2019-01-20T22:03:28.367Z,-2.40
2019-01-20T22:05:55.115Z,-2.40
2019-01-20T22:08:21.502Z,-2.40
2019-01-20T22:10:48.464Z,-2.30
2019-01-20T22:13:15.454Z,-2.30
2019-01-20T22:15:42.600Z,-2.30
2019-01-20T22:18:09.225Z,-2.30
2019-01-20T22:20:36.031Z,-2.40
2019-01-20T22:23:03.075Z,-2.40
2019-01-20T22:25:30.220Z,-2.40
2019-01-20T22:27:57.158Z,-2.40
2019-01-20T22:30:24.800Z,-2.40
2019-01-20T22:32:51.664Z,-2.40
2019-01-20T22:35:18.098Z,-2.40
2019-01-20T22:37:45.276Z,-2.40
2019-01-20T22:40:14.464Z,-2.40
2019-01-20T22:42:46.989Z,-2.30
2019-01-20T22:45:23.983Z,-2.30
2019-01-20T22:47:53.905Z,-2.30
2019-01-20T22:50:22.351Z,-2.30
2019-01-20T22:52:49.099Z,-2.30
2019-01-20T22:55:16.386Z,-2.30
2019-01-20T22:57:43.129Z,-2.40
2019-01-20T23:00:13.820Z,-2.30
2019-01-20T23:02:40.332Z,-2.30
2019-01-20T23:05:07.111Z,-2.30
2019-01-20T23:07:34.069Z,-2.30
2019-01-20T23:10:00.798Z,-2.40
2019-01-20T23:12:28.395Z,-2.40
2019-01-20T23:14:58.064Z,-2.40
2019-01-20T23:17:24.435Z,-2.50
2019-01-20T23:19:50.926Z,-2.40
2019-01-20T23:22:17.567Z,-2.40
2019-01-20T23:24:44.198Z,-2.30
2019-01-20T23:27:10.466Z,-2.30
2019-01-20T23:29:37.695Z,-2.40
2019-01-20T23:32:04.510Z,-2.40
2019-01-20T23:34:30.950Z,-2.50
2019-01-20T23:36:59.497Z,-2.50
2019-01-20T23:39:27.832Z,-2.50
2019-01-20T23:41:54.345Z,-2.60
2019-01-20T23:44:21.114Z,-2.60
2019-01-20T23:46:47.832Z,-2.50
2019-01-20T23:49:14.944Z,-2.50
2019-01-20T23:51:41.615Z,-2.60
2019-01-20T23:54:08.208Z,-2.50
2019-01-20T23:56:34.793Z,-2.50
2019-01-20T23:59:01.645Z,-2.60
